sensor_id;sensor_type;location;lat;lon;timestamp;P1;durP1;ratioP1;P2;durP2;ratioP2
3280;SDS011;1652;51.318;6.202;2023-05-07T00:02:13;26.90;;;22.83;;
3280;SDS011;1652;51.318;6.202;2023-05-07T00:04:40;32.40;;;22.23;;
3280;SDS011;1652;51.318;6.202;2023-05-07T00:07:07;28.20;;;24.23;;
3280;SDS011;1652;51.318;6.202;2023-05-07T00:09:34;28.90;;;23.57;;
3280;SDS011;1652;51.318;6.202;2023-05-07T00:12:02;29.57;;;23.60;;
3280;SDS011;1652;51.318;6.202;2023-05-07T00:14:29;33.37;;;26.20;;
3280;SDS011;1652;51.318;6.202;2023-05-07T00:16:57;38.63;;;25.10;;
3280;SDS011;1652;51.318;6.202;2023-05-07T00:19:24;31.10;;;26.93;;
3280;SDS011;1652;51.318;6.202;2023-05-07T00:21:51;33.93;;;26.30;;
3280;SDS011;1652;51.318;6.202;2023-05-07T00:24:19;35.03;;;27.20;;
3280;SDS011;1652;51.318;6.202;2023-05-07T00:26:46;37.30;;;26.13;;
3280;SDS011;1652;51.318;6.202;2023-05-07T00:29:13;31.13;;;26.23;;
3280;SDS011;1652;51.318;6.202;2023-05-07T00:31:40;35.57;;;25.50;;
3280;SDS011;1652;51.318;6.202;2023-05-07T00:34:07;32.63;;;26.57;;
3280;SDS011;1652;51.318;6.202;2023-05-07T00:36:34;32.17;;;26.47;;
3280;SDS011;1652;51.318;6.202;2023-05-07T00:39:01;37.00;;;27.43;;
3280;SDS011;1652;51.318;6.202;2023-05-07T00:41:29;32.23;;;26.93;;
3280;SDS011;1652;51.318;6.202;2023-05-07T00:43:59;31.83;;;27.43;;
3280;SDS011;1652;51.318;6.202;2023-05-07T00:46:27;35.50;;;28.37;;
3280;SDS011;1652;51.318;6.202;2023-05-07T00:48:56;37.10;;;28.00;;
3280;SDS011;1652;51.318;6.202;2023-05-07T00:51:24;32.37;;;26.80;;
3280;SDS011;1652;51.318;6.202;2023-05-07T00:53:53;33.40;;;27.67;;
3280;SDS011;1652;51.318;6.202;2023-05-07T00:56:21;30.67;;;25.13;;
3280;SDS011;1652;51.318;6.202;2023-05-07T00:58:48;32.00;;;26.07;;
3280;SDS011;1652;51.318;6.202;2023-05-07T01:01:15;33.07;;;24.73;;
3280;SDS011;1652;51.318;6.202;2023-05-07T01:03:43;32.17;;;26.50;;
3280;SDS011;1652;51.318;6.202;2023-05-07T01:06:10;29.83;;;25.90;;
3280;SDS011;1652;51.318;6.202;2023-05-07T01:08:39;32.60;;;25.67;;
3280;SDS011;1652;51.318;6.202;2023-05-07T01:11:08;33.30;;;25.70;;
3280;SDS011;1652;51.318;6.202;2023-05-07T01:13:36;31.77;;;25.53;;
3280;SDS011;1652;51.318;6.202;2023-05-07T01:16:04;32.60;;;25.70;;
3280;SDS011;1652;51.318;6.202;2023-05-07T01:18:32;31.50;;;26.30;;
3280;SDS011;1652;51.318;6.202;2023-05-07T01:20:58;35.30;;;25.40;;
3280;SDS011;1652;51.318;6.202;2023-05-07T01:23:27;29.60;;;25.83;;
3280;SDS011;1652;51.318;6.202;2023-05-07T01:25:54;27.80;;;23.17;;
3280;SDS011;1652;51.318;6.202;2023-05-07T01:28:21;24.63;;;21.77;;
3280;SDS011;1652;51.318;6.202;2023-05-07T01:30:54;26.87;;;23.27;;
3280;SDS011;1652;51.318;6.202;2023-05-07T01:33:31;26.10;;;21.90;;
3280;SDS011;1652;51.318;6.202;2023-05-07T01:36:01;23.40;;;21.00;;
3280;SDS011;1652;51.318;6.202;2023-05-07T01:38:32;24.03;;;21.53;;
3280;SDS011;1652;51.318;6.202;2023-05-07T01:41:00;29.57;;;23.57;;
3280;SDS011;1652;51.318;6.202;2023-05-07T01:43:28;25.27;;;22.50;;
3280;SDS011;1652;51.318;6.202;2023-05-07T01:45:57;28.40;;;23.07;;
3280;SDS011;1652;51.318;6.202;2023-05-07T01:48:24;32.13;;;23.63;;
3280;SDS011;1652;51.318;6.202;2023-05-07T01:50:51;26.83;;;22.37;;
3280;SDS011;1652;51.318;6.202;2023-05-07T01:53:19;34.27;;;22.63;;
3280;SDS011;1652;51.318;6.202;2023-05-07T01:55:46;26.30;;;22.17;;
3280;SDS011;1652;51.318;6.202;2023-05-07T01:58:13;24.97;;;20.83;;
3280;SDS011;1652;51.318;6.202;2023-05-07T02:00:40;27.00;;;23.07;;
3280;SDS011;1652;51.318;6.202;2023-05-07T02:03:07;29.53;;;23.67;;
3280;SDS011;1652;51.318;6.202;2023-05-07T02:05:34;25.10;;;21.47;;
3280;SDS011;1652;51.318;6.202;2023-05-07T02:08:01;27.97;;;22.03;;
3280;SDS011;1652;51.318;6.202;2023-05-07T02:10:28;31.13;;;22.80;;
3280;SDS011;1652;51.318;6.202;2023-05-07T02:12:55;30.47;;;25.23;;
3280;SDS011;1652;51.318;6.202;2023-05-07T02:15:22;33.30;;;24.50;;
3280;SDS011;1652;51.318;6.202;2023-05-07T02:18:05;28.20;;;24.87;;
3280;SDS011;1652;51.318;6.202;2023-05-07T02:20:45;32.07;;;25.53;;
3280;SDS011;1652;51.318;6.202;2023-05-07T02:23:12;33.60;;;25.23;;
3280;SDS011;1652;51.318;6.202;2023-05-07T02:25:39;29.20;;;24.57;;
3280;SDS011;1652;51.318;6.202;2023-05-07T02:28:06;29.57;;;24.07;;
3280;SDS011;1652;51.318;6.202;2023-05-07T02:30:33;30.97;;;23.67;;
3280;SDS011;1652;51.318;6.202;2023-05-07T02:33:00;33.60;;;24.33;;
3280;SDS011;1652;51.318;6.202;2023-05-07T02:35:27;25.80;;;22.07;;
3280;SDS011;1652;51.318;6.202;2023-05-07T02:37:54;28.47;;;21.90;;
3280;SDS011;1652;51.318;6.202;2023-05-07T02:40:21;27.73;;;23.10;;
3280;SDS011;1652;51.318;6.202;2023-05-07T02:42:48;23.83;;;20.00;;
3280;SDS011;1652;51.318;6.202;2023-05-07T02:45:15;26.77;;;21.00;;
3280;SDS011;1652;51.318;6.202;2023-05-07T02:47:41;24.27;;;20.07;;
3280;SDS011;1652;51.318;6.202;2023-05-07T02:50:08;26.70;;;21.33;;
3280;SDS011;1652;51.318;6.202;2023-05-07T02:52:36;24.73;;;19.80;;
3280;SDS011;1652;51.318;6.202;2023-05-07T02:55:03;21.97;;;18.97;;
3280;SDS011;1652;51.318;6.202;2023-05-07T02:57:30;26.03;;;21.20;;
3280;SDS011;1652;51.318;6.202;2023-05-07T02:59:57;20.63;;;18.40;;
3280;SDS011;1652;51.318;6.202;2023-05-07T03:02:25;23.97;;;18.10;;
3280;SDS011;1652;51.318;6.202;2023-05-07T03:04:52;21.23;;;18.93;;
3280;SDS011;1652;51.318;6.202;2023-05-07T03:07:19;20.60;;;17.53;;
3280;SDS011;1652;51.318;6.202;2023-05-07T03:09:46;28.00;;;18.10;;
3280;SDS011;1652;51.318;6.202;2023-05-07T03:12:13;21.20;;;18.03;;
3280;SDS011;1652;51.318;6.202;2023-05-07T03:14:39;25.93;;;21.07;;
3280;SDS011;1652;51.318;6.202;2023-05-07T03:17:06;24.90;;;19.00;;
3280;SDS011;1652;51.318;6.202;2023-05-07T03:19:33;30.60;;;20.27;;
3280;SDS011;1652;51.318;6.202;2023-05-07T03:22:00;22.40;;;19.10;;
3280;SDS011;1652;51.318;6.202;2023-05-07T03:24:27;22.50;;;19.33;;
3280;SDS011;1652;51.318;6.202;2023-05-07T03:26:54;24.60;;;20.03;;
3280;SDS011;1652;51.318;6.202;2023-05-07T03:29:21;22.43;;;19.97;;
3280;SDS011;1652;51.318;6.202;2023-05-07T03:31:48;25.87;;;18.80;;
3280;SDS011;1652;51.318;6.202;2023-05-07T03:34:15;20.23;;;18.13;;
3280;SDS011;1652;51.318;6.202;2023-05-07T03:36:43;19.97;;;17.90;;
3280;SDS011;1652;51.318;6.202;2023-05-07T03:39:10;23.70;;;19.23;;
3280;SDS011;1652;51.318;6.202;2023-05-07T03:41:37;20.70;;;16.77;;
3280;SDS011;1652;51.318;6.202;2023-05-07T03:44:03;22.70;;;17.47;;
3280;SDS011;1652;51.318;6.202;2023-05-07T03:46:30;19.17;;;17.20;;
3280;SDS011;1652;51.318;6.202;2023-05-07T03:48:59;21.10;;;18.23;;
3280;SDS011;1652;51.318;6.202;2023-05-07T03:51:26;20.00;;;17.90;;
3280;SDS011;1652;51.318;6.202;2023-05-07T03:53:53;20.90;;;17.77;;
3280;SDS011;1652;51.318;6.202;2023-05-07T03:56:20;19.73;;;17.63;;
3280;SDS011;1652;51.318;6.202;2023-05-07T03:58:47;24.90;;;19.30;;
3280;SDS011;1652;51.318;6.202;2023-05-07T04:01:14;20.03;;;18.00;;
3280;SDS011;1652;51.318;6.202;2023-05-07T04:03:41;27.03;;;18.60;;
3280;SDS011;1652;51.318;6.202;2023-05-07T04:06:08;19.07;;;16.93;;
3280;SDS011;1652;51.318;6.202;2023-05-07T04:08:34;18.53;;;16.40;;
3280;SDS011;1652;51.318;6.202;2023-05-07T04:11:01;21.47;;;16.70;;
3280;SDS011;1652;51.318;6.202;2023-05-07T04:13:29;26.47;;;16.27;;
3280;SDS011;1652;51.318;6.202;2023-05-07T04:15:56;19.60;;;16.93;;
3280;SDS011;1652;51.318;6.202;2023-05-07T04:18:23;18.77;;;16.77;;
3280;SDS011;1652;51.318;6.202;2023-05-07T04:20:50;20.10;;;17.03;;
3280;SDS011;1652;51.318;6.202;2023-05-07T04:23:17;22.70;;;16.23;;
3280;SDS011;1652;51.318;6.202;2023-05-07T04:25:44;20.97;;;17.63;;
3280;SDS011;1652;51.318;6.202;2023-05-07T04:28:11;19.27;;;17.23;;
3280;SDS011;1652;51.318;6.202;2023-05-07T04:30:38;18.77;;;16.80;;
3280;SDS011;1652;51.318;6.202;2023-05-07T04:33:05;18.80;;;16.90;;
3280;SDS011;1652;51.318;6.202;2023-05-07T04:35:33;21.90;;;17.70;;
3280;SDS011;1652;51.318;6.202;2023-05-07T04:38:00;21.00;;;16.83;;
3280;SDS011;1652;51.318;6.202;2023-05-07T04:40:27;18.40;;;16.50;;
3280;SDS011;1652;51.318;6.202;2023-05-07T04:42:54;18.83;;;16.93;;
3280;SDS011;1652;51.318;6.202;2023-05-07T04:45:21;19.30;;;17.30;;
3280;SDS011;1652;51.318;6.202;2023-05-07T04:47:48;18.27;;;15.53;;
3280;SDS011;1652;51.318;6.202;2023-05-07T04:50:15;16.20;;;14.50;;
3280;SDS011;1652;51.318;6.202;2023-05-07T04:52:42;17.53;;;15.63;;
3280;SDS011;1652;51.318;6.202;2023-05-07T04:55:09;18.53;;;14.60;;
3280;SDS011;1652;51.318;6.202;2023-05-07T04:57:36;15.03;;;13.50;;
3280;SDS011;1652;51.318;6.202;2023-05-07T05:00:07;15.40;;;12.60;;
3280;SDS011;1652;51.318;6.202;2023-05-07T05:02:35;13.43;;;12.20;;
3280;SDS011;1652;51.318;6.202;2023-05-07T05:05:02;14.80;;;12.83;;
3280;SDS011;1652;51.318;6.202;2023-05-07T05:07:29;12.20;;;11.20;;
3280;SDS011;1652;51.318;6.202;2023-05-07T05:09:56;12.90;;;11.70;;
3280;SDS011;1652;51.318;6.202;2023-05-07T05:12:24;13.50;;;12.03;;
3280;SDS011;1652;51.318;6.202;2023-05-07T05:14:51;13.00;;;11.70;;
3280;SDS011;1652;51.318;6.202;2023-05-07T05:17:18;13.13;;;10.73;;
3280;SDS011;1652;51.318;6.202;2023-05-07T05:19:45;12.70;;;11.43;;
3280;SDS011;1652;51.318;6.202;2023-05-07T05:22:12;12.30;;;11.10;;
3280;SDS011;1652;51.318;6.202;2023-05-07T05:24:38;15.20;;;10.40;;
3280;SDS011;1652;51.318;6.202;2023-05-07T05:27:05;10.57;;;9.77;;
3280;SDS011;1652;51.318;6.202;2023-05-07T05:29:32;10.60;;;9.73;;
3280;SDS011;1652;51.318;6.202;2023-05-07T05:31:59;10.27;;;9.33;;
3280;SDS011;1652;51.318;6.202;2023-05-07T05:34:26;9.90;;;9.00;;
3280;SDS011;1652;51.318;6.202;2023-05-07T05:36:53;9.07;;;8.37;;
3280;SDS011;1652;51.318;6.202;2023-05-07T05:39:20;8.37;;;7.67;;
3280;SDS011;1652;51.318;6.202;2023-05-07T05:41:49;7.07;;;6.57;;
3280;SDS011;1652;51.318;6.202;2023-05-07T05:44:16;8.10;;;7.60;;
3280;SDS011;1652;51.318;6.202;2023-05-07T05:46:43;7.57;;;6.93;;
3280;SDS011;1652;51.318;6.202;2023-05-07T05:49:10;6.87;;;6.37;;
3280;SDS011;1652;51.318;6.202;2023-05-07T05:51:37;6.80;;;6.50;;
3280;SDS011;1652;51.318;6.202;2023-05-07T05:54:03;8.40;;;7.03;;
3280;SDS011;1652;51.318;6.202;2023-05-07T05:56:30;7.53;;;7.00;;
3280;SDS011;1652;51.318;6.202;2023-05-07T05:58:57;7.43;;;6.93;;
3280;SDS011;1652;51.318;6.202;2023-05-07T06:01:24;9.70;;;6.90;;
3280;SDS011;1652;51.318;6.202;2023-05-07T06:03:51;8.10;;;7.27;;
3280;SDS011;1652;51.318;6.202;2023-05-07T06:06:18;9.17;;;7.60;;
3280;SDS011;1652;51.318;6.202;2023-05-07T06:08:45;7.53;;;6.93;;
3280;SDS011;1652;51.318;6.202;2023-05-07T06:11:12;7.13;;;6.73;;
3280;SDS011;1652;51.318;6.202;2023-05-07T06:13:39;7.53;;;7.03;;
3280;SDS011;1652;51.318;6.202;2023-05-07T06:16:06;9.17;;;8.40;;
3280;SDS011;1652;51.318;6.202;2023-05-07T06:18:33;9.00;;;8.20;;
3280;SDS011;1652;51.318;6.202;2023-05-07T06:21:02;9.90;;;8.07;;
3280;SDS011;1652;51.318;6.202;2023-05-07T06:23:29;8.73;;;7.80;;
3280;SDS011;1652;51.318;6.202;2023-05-07T06:25:56;9.47;;;8.73;;
3280;SDS011;1652;51.318;6.202;2023-05-07T06:28:23;9.17;;;8.03;;
3280;SDS011;1652;51.318;6.202;2023-05-07T06:30:50;9.03;;;8.30;;
3280;SDS011;1652;51.318;6.202;2023-05-07T06:33:17;9.57;;;8.60;;
3280;SDS011;1652;51.318;6.202;2023-05-07T06:35:44;8.10;;;7.50;;
3280;SDS011;1652;51.318;6.202;2023-05-07T06:38:11;7.73;;;7.20;;
3280;SDS011;1652;51.318;6.202;2023-05-07T06:40:38;8.20;;;7.40;;
3280;SDS011;1652;51.318;6.202;2023-05-07T06:43:05;7.30;;;6.97;;
3280;SDS011;1652;51.318;6.202;2023-05-07T06:45:32;8.50;;;7.90;;
3280;SDS011;1652;51.318;6.202;2023-05-07T06:47:59;10.17;;;8.00;;
3280;SDS011;1652;51.318;6.202;2023-05-07T06:50:26;7.50;;;6.63;;
3280;SDS011;1652;51.318;6.202;2023-05-07T06:52:53;8.17;;;7.30;;
3280;SDS011;1652;51.318;6.202;2023-05-07T06:55:19;9.60;;;7.53;;
3280;SDS011;1652;51.318;6.202;2023-05-07T06:57:49;7.33;;;6.73;;
3280;SDS011;1652;51.318;6.202;2023-05-07T07:00:16;12.93;;;6.20;;
3280;SDS011;1652;51.318;6.202;2023-05-07T07:02:43;6.77;;;6.37;;
3280;SDS011;1652;51.318;6.202;2023-05-07T07:05:11;7.73;;;7.03;;
3280;SDS011;1652;51.318;6.202;2023-05-07T07:07:37;6.87;;;6.27;;
3280;SDS011;1652;51.318;6.202;2023-05-07T07:10:04;8.87;;;7.30;;
3280;SDS011;1652;51.318;6.202;2023-05-07T07:12:32;10.03;;;6.73;;
3280;SDS011;1652;51.318;6.202;2023-05-07T07:14:59;6.20;;;5.53;;
3280;SDS011;1652;51.318;6.202;2023-05-07T07:17:26;5.90;;;5.57;;
3280;SDS011;1652;51.318;6.202;2023-05-07T07:19:52;6.80;;;6.30;;
3280;SDS011;1652;51.318;6.202;2023-05-07T07:22:19;5.73;;;5.23;;
3280;SDS011;1652;51.318;6.202;2023-05-07T07:24:46;6.27;;;5.53;;
3280;SDS011;1652;51.318;6.202;2023-05-07T07:27:13;6.10;;;5.50;;
3280;SDS011;1652;51.318;6.202;2023-05-07T07:29:40;4.87;;;4.60;;
3280;SDS011;1652;51.318;6.202;2023-05-07T07:32:07;5.10;;;4.80;;
3280;SDS011;1652;51.318;6.202;2023-05-07T07:34:34;5.30;;;5.10;;
3280;SDS011;1652;51.318;6.202;2023-05-07T07:37:01;5.87;;;5.40;;
3280;SDS011;1652;51.318;6.202;2023-05-07T07:39:32;5.63;;;5.23;;
3280;SDS011;1652;51.318;6.202;2023-05-07T07:41:59;5.73;;;5.23;;
3280;SDS011;1652;51.318;6.202;2023-05-07T07:44:27;5.80;;;5.50;;
3280;SDS011;1652;51.318;6.202;2023-05-07T07:46:54;6.13;;;5.57;;
3280;SDS011;1652;51.318;6.202;2023-05-07T07:49:21;5.47;;;5.03;;
3280;SDS011;1652;51.318;6.202;2023-05-07T07:51:48;4.80;;;4.50;;
3280;SDS011;1652;51.318;6.202;2023-05-07T07:54:15;6.00;;;5.50;;
3280;SDS011;1652;51.318;6.202;2023-05-07T07:56:42;5.53;;;5.20;;
3280;SDS011;1652;51.318;6.202;2023-05-07T07:59:09;5.23;;;4.90;;
3280;SDS011;1652;51.318;6.202;2023-05-07T08:01:36;5.00;;;4.60;;
3280;SDS011;1652;51.318;6.202;2023-05-07T08:04:03;5.90;;;5.40;;
3280;SDS011;1652;51.318;6.202;2023-05-07T08:06:32;6.20;;;5.70;;
3280;SDS011;1652;51.318;6.202;2023-05-07T08:08:58;5.77;;;5.37;;
3280;SDS011;1652;51.318;6.202;2023-05-07T08:11:25;9.23;;;5.83;;
3280;SDS011;1652;51.318;6.202;2023-05-07T08:13:53;5.23;;;4.90;;
3280;SDS011;1652;51.318;6.202;2023-05-07T08:16:20;5.77;;;5.40;;
3280;SDS011;1652;51.318;6.202;2023-05-07T08:18:49;5.13;;;4.93;;
3280;SDS011;1652;51.318;6.202;2023-05-07T08:21:16;5.50;;;5.10;;
3280;SDS011;1652;51.318;6.202;2023-05-07T08:23:43;6.77;;;5.87;;
3280;SDS011;1652;51.318;6.202;2023-05-07T08:26:10;5.47;;;5.00;;
3280;SDS011;1652;51.318;6.202;2023-05-07T08:28:37;4.83;;;4.53;;
3280;SDS011;1652;51.318;6.202;2023-05-07T08:31:04;4.20;;;4.00;;
3280;SDS011;1652;51.318;6.202;2023-05-07T08:33:31;4.57;;;4.37;;
3280;SDS011;1652;51.318;6.202;2023-05-07T08:35:58;9.20;;;5.30;;
3280;SDS011;1652;51.318;6.202;2023-05-07T08:38:25;4.73;;;4.53;;
3280;SDS011;1652;51.318;6.202;2023-05-07T08:40:52;5.63;;;4.60;;
3280;SDS011;1652;51.318;6.202;2023-05-07T08:43:19;4.40;;;4.13;;
3280;SDS011;1652;51.318;6.202;2023-05-07T08:45:47;4.40;;;3.90;;
3280;SDS011;1652;51.318;6.202;2023-05-07T08:48:19;4.47;;;4.17;;
3280;SDS011;1652;51.318;6.202;2023-05-07T08:50:48;5.83;;;4.10;;
3280;SDS011;1652;51.318;6.202;2023-05-07T08:53:16;4.83;;;4.43;;
3280;SDS011;1652;51.318;6.202;2023-05-07T08:55:43;4.83;;;4.53;;
3280;SDS011;1652;51.318;6.202;2023-05-07T08:58:11;4.20;;;3.77;;
3280;SDS011;1652;51.318;6.202;2023-05-07T09:00:38;6.57;;;5.97;;
3280;SDS011;1652;51.318;6.202;2023-05-07T09:03:06;4.57;;;4.27;;
3280;SDS011;1652;51.318;6.202;2023-05-07T09:05:33;6.13;;;5.63;;
3280;SDS011;1652;51.318;6.202;2023-05-07T09:08:05;13.60;;;5.27;;
3280;SDS011;1652;51.318;6.202;2023-05-07T09:10:33;6.63;;;4.20;;
3280;SDS011;1652;51.318;6.202;2023-05-07T09:13:00;4.20;;;3.87;;
3280;SDS011;1652;51.318;6.202;2023-05-07T09:15:29;4.23;;;4.03;;
3280;SDS011;1652;51.318;6.202;2023-05-07T09:17:59;4.40;;;4.20;;
3280;SDS011;1652;51.318;6.202;2023-05-07T09:20:37;5.27;;;4.77;;
3280;SDS011;1652;51.318;6.202;2023-05-07T09:23:04;4.07;;;3.87;;
3280;SDS011;1652;51.318;6.202;2023-05-07T09:25:33;5.80;;;5.13;;
3280;SDS011;1652;51.318;6.202;2023-05-07T09:28:02;5.53;;;5.13;;
3280;SDS011;1652;51.318;6.202;2023-05-07T09:30:30;4.93;;;4.53;;
3280;SDS011;1652;51.318;6.202;2023-05-07T09:32:58;4.70;;;4.50;;
3280;SDS011;1652;51.318;6.202;2023-05-07T09:35:26;4.87;;;4.50;;
3280;SDS011;1652;51.318;6.202;2023-05-07T09:37:54;4.70;;;4.30;;
3280;SDS011;1652;51.318;6.202;2023-05-07T09:40:26;4.03;;;3.80;;
3280;SDS011;1652;51.318;6.202;2023-05-07T09:42:54;3.87;;;3.77;;
3280;SDS011;1652;51.318;6.202;2023-05-07T09:45:27;5.30;;;5.00;;
3280;SDS011;1652;51.318;6.202;2023-05-07T09:47:55;4.53;;;4.33;;
3280;SDS011;1652;51.318;6.202;2023-05-07T09:50:28;6.77;;;5.03;;
3280;SDS011;1652;51.318;6.202;2023-05-07T09:52:56;5.17;;;4.93;;
3280;SDS011;1652;51.318;6.202;2023-05-07T09:55:23;4.67;;;4.47;;
3280;SDS011;1652;51.318;6.202;2023-05-07T09:57:52;4.90;;;4.50;;
3280;SDS011;1652;51.318;6.202;2023-05-07T10:00:20;4.33;;;4.03;;
3280;SDS011;1652;51.318;6.202;2023-05-07T10:02:48;4.73;;;4.43;;
3280;SDS011;1652;51.318;6.202;2023-05-07T10:05:19;4.50;;;4.10;;
3280;SDS011;1652;51.318;6.202;2023-05-07T10:07:49;4.50;;;4.30;;
3280;SDS011;1652;51.318;6.202;2023-05-07T10:10:17;4.70;;;4.47;;
3280;SDS011;1652;51.318;6.202;2023-05-07T10:12:44;5.20;;;4.80;;
3280;SDS011;1652;51.318;6.202;2023-05-07T10:15:12;9.10;;;4.30;;
3280;SDS011;1652;51.318;6.202;2023-05-07T10:17:40;4.93;;;4.53;;
3280;SDS011;1652;51.318;6.202;2023-05-07T10:20:08;12.53;;;3.70;;
3280;SDS011;1652;51.318;6.202;2023-05-07T10:22:43;4.50;;;3.97;;
3280;SDS011;1652;51.318;6.202;2023-05-07T10:25:30;4.73;;;4.37;;
3280;SDS011;1652;51.318;6.202;2023-05-07T10:28:05;4.87;;;4.67;;
3280;SDS011;1652;51.318;6.202;2023-05-07T10:33:21;4.03;;;3.73;;
3280;SDS011;1652;51.318;6.202;2023-05-07T10:35:51;4.53;;;3.57;;
3280;SDS011;1652;51.318;6.202;2023-05-07T10:38:24;3.57;;;3.37;;
3280;SDS011;1652;51.318;6.202;2023-05-07T10:40:53;7.43;;;3.20;;
3280;SDS011;1652;51.318;6.202;2023-05-07T10:43:20;3.93;;;2.80;;
3280;SDS011;1652;51.318;6.202;2023-05-07T10:51:30;4.50;;;3.70;;
3280;SDS011;1652;51.318;6.202;2023-05-07T10:56:37;3.50;;;3.33;;
3280;SDS011;1652;51.318;6.202;2023-05-07T10:59:30;7.93;;;7.43;;
3280;SDS011;1652;51.318;6.202;2023-05-07T11:02:02;3.77;;;3.57;;
3280;SDS011;1652;51.318;6.202;2023-05-07T11:04:30;3.70;;;3.50;;
3280;SDS011;1652;51.318;6.202;2023-05-07T11:15:06;2.73;;;2.53;;
3280;SDS011;1652;51.318;6.202;2023-05-07T11:17:34;3.33;;;3.13;;
3280;SDS011;1652;51.318;6.202;2023-05-07T11:20:18;3.83;;;2.60;;
3280;SDS011;1652;51.318;6.202;2023-05-07T11:22:46;3.43;;;3.23;;
3280;SDS011;1652;51.318;6.202;2023-05-07T11:25:17;2.60;;;2.50;;
3280;SDS011;1652;51.318;6.202;2023-05-07T11:27:47;8.37;;;2.17;;
3280;SDS011;1652;51.318;6.202;2023-05-07T11:30:17;5.40;;;3.00;;
3280;SDS011;1652;51.318;6.202;2023-05-07T11:32:47;2.70;;;2.60;;
3280;SDS011;1652;51.318;6.202;2023-05-07T11:35:15;4.73;;;2.90;;
3280;SDS011;1652;51.318;6.202;2023-05-07T11:37:42;2.03;;;1.80;;
3280;SDS011;1652;51.318;6.202;2023-05-07T11:40:12;5.23;;;1.90;;
3280;SDS011;1652;51.318;6.202;2023-05-07T11:42:40;4.70;;;2.10;;
3280;SDS011;1652;51.318;6.202;2023-05-07T11:45:09;2.87;;;2.27;;
3280;SDS011;1652;51.318;6.202;2023-05-07T11:47:37;1.80;;;1.70;;
3280;SDS011;1652;51.318;6.202;2023-05-07T11:50:05;4.63;;;2.53;;
3280;SDS011;1652;51.318;6.202;2023-05-07T11:52:34;3.27;;;2.97;;
3280;SDS011;1652;51.318;6.202;2023-05-07T11:55:02;4.57;;;2.80;;
3280;SDS011;1652;51.318;6.202;2023-05-07T11:57:32;3.00;;;2.80;;
3280;SDS011;1652;51.318;6.202;2023-05-07T12:00:00;2.77;;;2.57;;
3280;SDS011;1652;51.318;6.202;2023-05-07T12:02:30;4.23;;;3.10;;
3280;SDS011;1652;51.318;6.202;2023-05-07T12:04:57;2.23;;;2.13;;
3280;SDS011;1652;51.318;6.202;2023-05-07T12:07:27;2.07;;;1.97;;
3280;SDS011;1652;51.318;6.202;2023-05-07T12:09:56;5.70;;;2.27;;
3280;SDS011;1652;51.318;6.202;2023-05-07T12:12:23;2.47;;;2.20;;
3280;SDS011;1652;51.318;6.202;2023-05-07T12:14:50;2.37;;;1.77;;
3280;SDS011;1652;51.318;6.202;2023-05-07T12:17:18;3.20;;;1.80;;
3280;SDS011;1652;51.318;6.202;2023-05-07T12:19:45;2.40;;;1.60;;
3280;SDS011;1652;51.318;6.202;2023-05-07T12:22:13;1.60;;;1.50;;
3280;SDS011;1652;51.318;6.202;2023-05-07T12:24:43;1.97;;;1.47;;
3280;SDS011;1652;51.318;6.202;2023-05-07T12:27:14;1.60;;;1.50;;
3280;SDS011;1652;51.318;6.202;2023-05-07T12:29:46;3.40;;;1.70;;
3280;SDS011;1652;51.318;6.202;2023-05-07T12:32:14;1.63;;;1.53;;
3280;SDS011;1652;51.318;6.202;2023-05-07T12:34:45;1.93;;;1.73;;
3280;SDS011;1652;51.318;6.202;2023-05-07T12:37:13;5.57;;;1.93;;
3280;SDS011;1652;51.318;6.202;2023-05-07T12:39:49;3.70;;;1.80;;
3280;SDS011;1652;51.318;6.202;2023-05-07T12:42:32;4.33;;;1.93;;
3280;SDS011;1652;51.318;6.202;2023-05-07T12:45:11;1.90;;;1.70;;
3280;SDS011;1652;51.318;6.202;2023-05-07T12:47:43;2.43;;;1.70;;
3280;SDS011;1652;51.318;6.202;2023-05-07T12:50:11;1.63;;;1.53;;
3280;SDS011;1652;51.318;6.202;2023-05-07T12:52:40;5.37;;;1.63;;
3280;SDS011;1652;51.318;6.202;2023-05-07T12:55:07;2.10;;;1.90;;
3280;SDS011;1652;51.318;6.202;2023-05-07T12:57:42;2.90;;;2.70;;
3280;SDS011;1652;51.318;6.202;2023-05-07T13:00:11;5.77;;;2.40;;
3280;SDS011;1652;51.318;6.202;2023-05-07T13:02:39;2.90;;;1.93;;
3280;SDS011;1652;51.318;6.202;2023-05-07T13:05:08;1.47;;;1.37;;
3280;SDS011;1652;51.318;6.202;2023-05-07T13:07:35;1.40;;;1.30;;
3280;SDS011;1652;51.318;6.202;2023-05-07T13:10:03;2.30;;;2.20;;
3280;SDS011;1652;51.318;6.202;2023-05-07T13:12:30;2.63;;;2.13;;
3280;SDS011;1652;51.318;6.202;2023-05-07T13:14:57;5.03;;;2.13;;
3280;SDS011;1652;51.318;6.202;2023-05-07T13:17:25;2.00;;;1.53;;
3280;SDS011;1652;51.318;6.202;2023-05-07T13:19:52;2.13;;;1.70;;
3280;SDS011;1652;51.318;6.202;2023-05-07T13:22:19;1.63;;;1.53;;
3280;SDS011;1652;51.318;6.202;2023-05-07T13:24:46;2.40;;;1.77;;
3280;SDS011;1652;51.318;6.202;2023-05-07T13:27:13;2.00;;;1.67;;
3280;SDS011;1652;51.318;6.202;2023-05-07T13:29:40;4.97;;;1.93;;
3280;SDS011;1652;51.318;6.202;2023-05-07T13:32:07;2.60;;;1.60;;
3280;SDS011;1652;51.318;6.202;2023-05-07T13:34:34;1.33;;;1.23;;
3280;SDS011;1652;51.318;6.202;2023-05-07T13:37:00;7.93;;;1.60;;
3280;SDS011;1652;51.318;6.202;2023-05-07T13:39:27;1.50;;;1.40;;
3280;SDS011;1652;51.318;6.202;2023-05-07T13:41:54;2.00;;;1.50;;
3280;SDS011;1652;51.318;6.202;2023-05-07T13:44:21;5.70;;;1.63;;
3280;SDS011;1652;51.318;6.202;2023-05-07T13:46:48;3.07;;;1.33;;
3280;SDS011;1652;51.318;6.202;2023-05-07T13:49:15;4.30;;;1.60;;
3280;SDS011;1652;51.318;6.202;2023-05-07T13:51:42;1.73;;;1.63;;
3280;SDS011;1652;51.318;6.202;2023-05-07T13:54:09;1.70;;;1.60;;
3280;SDS011;1652;51.318;6.202;2023-05-07T13:56:36;3.53;;;1.40;;
3280;SDS011;1652;51.318;6.202;2023-05-07T13:59:03;1.87;;;1.30;;
3280;SDS011;1652;51.318;6.202;2023-05-07T14:01:30;1.80;;;1.33;;
3280;SDS011;1652;51.318;6.202;2023-05-07T14:03:57;1.67;;;1.57;;
3280;SDS011;1652;51.318;6.202;2023-05-07T14:06:25;2.30;;;2.03;;
3280;SDS011;1652;51.318;6.202;2023-05-07T14:08:52;2.50;;;2.30;;
3280;SDS011;1652;51.318;6.202;2023-05-07T14:11:19;2.50;;;1.30;;
3280;SDS011;1652;51.318;6.202;2023-05-07T14:13:47;1.93;;;1.47;;
3280;SDS011;1652;51.318;6.202;2023-05-07T14:16:13;1.60;;;1.30;;
3280;SDS011;1652;51.318;6.202;2023-05-07T14:18:41;1.20;;;1.10;;
3280;SDS011;1652;51.318;6.202;2023-05-07T14:21:08;1.30;;;1.00;;
3280;SDS011;1652;51.318;6.202;2023-05-07T14:23:36;3.27;;;2.67;;
3280;SDS011;1652;51.318;6.202;2023-05-07T14:26:03;3.77;;;3.13;;
3280;SDS011;1652;51.318;6.202;2023-05-07T14:28:29;3.50;;;3.30;;
3280;SDS011;1652;51.318;6.202;2023-05-07T14:30:57;8.33;;;2.70;;
3280;SDS011;1652;51.318;6.202;2023-05-07T14:33:24;2.90;;;2.30;;
3280;SDS011;1652;51.318;6.202;2023-05-07T14:35:51;2.30;;;2.20;;
3280;SDS011;1652;51.318;6.202;2023-05-07T14:38:18;2.03;;;1.87;;
3280;SDS011;1652;51.318;6.202;2023-05-07T14:40:45;8.23;;;1.87;;
3280;SDS011;1652;51.318;6.202;2023-05-07T14:43:12;2.97;;;2.00;;
3280;SDS011;1652;51.318;6.202;2023-05-07T14:45:38;6.00;;;1.30;;
3280;SDS011;1652;51.318;6.202;2023-05-07T14:48:05;1.47;;;1.37;;
3280;SDS011;1652;51.318;6.202;2023-05-07T14:50:32;1.40;;;1.30;;
3280;SDS011;1652;51.318;6.202;2023-05-07T14:52:59;11.83;;;8.73;;
3280;SDS011;1652;51.318;6.202;2023-05-07T14:55:26;7.53;;;1.30;;
3280;SDS011;1652;51.318;6.202;2023-05-07T14:57:53;2.40;;;2.10;;
3280;SDS011;1652;51.318;6.202;2023-05-07T15:00:20;2.23;;;2.00;;
3280;SDS011;1652;51.318;6.202;2023-05-07T15:02:47;1.43;;;1.33;;
3280;SDS011;1652;51.318;6.202;2023-05-07T15:05:14;1.40;;;1.00;;
3280;SDS011;1652;51.318;6.202;2023-05-07T15:07:41;3.40;;;1.77;;
3280;SDS011;1652;51.318;6.202;2023-05-07T15:10:08;1.70;;;1.60;;
3280;SDS011;1652;51.318;6.202;2023-05-07T15:12:35;1.43;;;1.30;;
3280;SDS011;1652;51.318;6.202;2023-05-07T15:15:02;1.83;;;1.57;;
3280;SDS011;1652;51.318;6.202;2023-05-07T15:17:29;2.23;;;1.57;;
3280;SDS011;1652;51.318;6.202;2023-05-07T15:19:56;7.13;;;1.80;;
3280;SDS011;1652;51.318;6.202;2023-05-07T15:22:23;3.23;;;1.30;;
3280;SDS011;1652;51.318;6.202;2023-05-07T15:24:50;6.70;;;1.33;;
3280;SDS011;1652;51.318;6.202;2023-05-07T15:27:17;3.43;;;2.10;;
3280;SDS011;1652;51.318;6.202;2023-05-07T15:29:44;1.53;;;1.40;;